Time,TemperatureF,DewpointF,PressureIn,WindDirection,WindDirectionDegrees,WindSpeedMPH,WindSpeedGustMPH,Humidity,HourlyPrecipIn,Conditions,Clouds,dailyrainin,SoftwareType,DateUTC
2013-01-18 00:30:00,29.2,28.5,30.21,NW,315,16.0,16.0,97,0.00,,BKN120,-99.99,VWS V12.06,2013-01-18 05:30:00,
2013-01-18 00:32:00,28.0,22.9,30.20,NW,325,2.0,7.0,81,0.00,,BKN120,-99.99,VWS V12.06,2013-01-18 05:32:00,
2013-01-18 01:00:00,27.9,26.9,30.22,North,355,14.0,14.0,96,0.00,,SCT017,-99.99,VWS V12.06,2013-01-18 06:00:00,
2013-01-18 01:30:00,27.1,26.1,30.23,North,355,13.0,16.0,96,0.00,,SCT017,-99.99,VWS V12.06,2013-01-18 06:30:00,
2013-01-18 02:00:00,26.4,25.4,30.26,NNW,338,7.0,15.0,96,0.00,,CLR,-99.99,VWS V12.06,2013-01-18 07:00:00,
2013-01-18 02:30:00,26.1,25.1,30.28,NW,318,8.0,8.0,96,0.00,,CLR,-99.99,VWS V12.06,2013-01-18 07:30:00,
2013-01-18 02:32:00,26.0,25.0,26.99,North,350,12.0,17.0,96,0.00,,CLR,-99.99,VWS V12.06,2013-01-18 07:32:00,
2013-01-18 03:00:00,25.5,24.3,30.29,NNW,344,6.0,20.0,95,0.00,,CLR,-99.99,VWS V12.06,2013-01-18 08:00:00,
2013-01-18 03:30:00,25.2,24.2,30.29,North,355,7.0,7.0,96,0.00,,CLR,-99.99,VWS V12.06,2013-01-18 08:30:00,
2013-01-18 04:00:00,24.6,23.4,30.29,WNW,287,9.0,9.0,95,0.00, HZ,,-99.99,VWS V12.06,2013-01-18 09:00:00,
2013-01-18 04:30:00,24.2,23.0,30.29,NW,315,10.0,10.0,95,0.00, HZ,,-99.99,VWS V12.06,2013-01-18 09:30:00,
2013-01-18 05:00:00,24.1,22.9,30.30,WNW,286,7.0,7.0,95,0.00, -SN,,-99.99,VWS V12.06,2013-01-18 10:00:00,
2013-01-18 05:30:00,24.0,22.5,30.30,WNW,284,10.0,11.0,94,0.00, -SN,,-99.99,VWS V12.06,2013-01-18 10:30:00,
2013-01-18 06:00:00,24.0,22.5,30.32,NW,321,10.0,10.0,94,0.00, HZ,,-99.99,VWS V12.06,2013-01-18 11:00:00,
2013-01-18 06:30:00,24.0,22.5,30.33,NW,313,18.0,18.0,94,0.00, HZ,,-99.99,VWS V12.06,2013-01-18 11:30:00,
2013-01-18 07:00:00,24.1,22.4,30.34,NNW,327,14.0,23.0,93,0.00, HZ,,-99.99,VWS V12.06,2013-01-18 12:00:00,
2013-01-18 07:30:00,24.0,22.3,30.37,NNW,338,20.0,23.0,93,0.00, HZ,,-99.99,VWS V12.06,2013-01-18 12:30:00,
2013-01-18 08:00:00,24.0,22.3,30.37,NNE,14,10.0,20.0,93,0.00,,CLR,-99.99,VWS V12.06,2013-01-18 13:00:00,
2013-01-18 08:30:00,24.5,22.8,30.40,WNW,289,9.0,19.0,93,0.00,,CLR,-99.99,VWS V12.06,2013-01-18 13:30:00,
2013-01-18 09:00:00,25.9,23.9,30.43,SW,218,9.0,17.0,92,0.00,,CLR,-99.99,VWS V12.06,2013-01-18 14:00:00,
2013-01-18 09:30:00,27.1,24.6,30.47,WNW,296,4.0,12.0,90,0.00,,CLR,-99.99,VWS V12.06,2013-01-18 14:30:00,
2013-01-18 10:00:00,28.3,26.0,30.50,North,349,14.0,19.0,91,0.00,,CLR,-99.99,VWS V12.06,2013-01-18 15:00:00,
2013-01-18 10:30:00,28.8,26.5,30.52,NW,310,7.0,7.0,91,0.01,,CLR,-99.99,VWS V12.06,2013-01-18 15:30:00,
2013-01-18 11:00:00,30.2,28.2,30.53,North,351,8.0,8.0,92,0.01,,CLR,-99.99,VWS V12.06,2013-01-18 16:00:00,
2013-01-18 11:30:00,31.2,29.7,30.54,North,360,7.0,9.0,94,0.01,,CLR,-99.99,VWS V12.06,2013-01-18 16:30:00,
2013-01-18 12:00:00,31.9,30.1,30.54,North,351,8.0,9.0,93,0.01,,CLR,-99.99,VWS V12.06,2013-01-18 17:00:00,
2013-01-18 12:30:00,32.3,29.7,30.54,NNW,340,7.0,7.0,90,0.00,,CLR,-99.99,VWS V12.06,2013-01-18 17:30:00,
2013-01-18 13:00:00,34.0,30.8,30.54,NW,306,5.0,6.0,88,0.00,,CLR,-99.99,VWS V12.06,2013-01-18 18:00:00,
2013-01-18 13:30:00,35.4,33.3,30.53,North,355,1.0,3.0,92,0.00,,CLR,-99.99,VWS V12.06,2013-01-18 18:30:00,
2013-01-18 14:00:00,36.7,32.6,30.53,North,355,0.0,0.0,85,0.00,,CLR,-99.99,VWS V12.06,2013-01-18 19:00:00,
2013-01-18 14:30:00,37.9,34.7,30.53,North,5,0.0,2.0,88,0.00,,CLR,-99.99,VWS V12.06,2013-01-18 19:30:00,
2013-01-18 15:00:00,39.2,32.3,30.54,SSW,197,0.0,0.0,76,0.00,,CLR,-99.99,VWS V12.06,2013-01-18 20:00:00,
2013-01-18 15:30:00,37.6,30.1,30.54,East,91,2.0,3.0,74,0.00,,CLR,-99.99,VWS V12.06,2013-01-18 20:30:00,
2013-01-18 16:00:00,38.1,30.6,30.54,SE,127,1.0,3.0,74,0.00,,CLR,-99.99,VWS V12.06,2013-01-18 21:00:00,
2013-01-18 16:30:00,38.8,30.9,30.55,South,181,0.0,0.0,73,0.00,,CLR,-99.99,VWS V12.06,2013-01-18 21:30:00,
2013-01-18 17:00:00,38.9,30.7,30.56,SSW,206,1.0,3.0,72,0.00,,CLR,-99.99,VWS V12.06,2013-01-18 22:00:00,
2013-01-18 17:30:00,36.6,28.4,30.56,SSE,167,2.0,2.0,72,0.00,,CLR,-99.99,VWS V12.06,2013-01-18 22:30:00,
2013-01-18 18:00:00,35.3,27.9,30.57,South,178,3.0,3.0,74,0.00,,CLR,-99.99,VWS V12.06,2013-01-18 23:00:00,
2013-01-18 18:30:00,34.6,28.1,30.58,SSW,200,3.0,3.0,77,0.00,,CLR,-99.99,VWS V12.06,2013-01-18 23:30:00,
2013-01-18 19:00:00,34.0,26.9,30.58,ESE,123,3.0,3.0,75,0.00,,CLR,-99.99,VWS V12.06,2013-01-19 00:00:00,
2013-01-18 19:30:00,33.4,27.0,30.58,ESE,122,1.0,2.0,77,0.00,,CLR,-99.99,VWS V12.06,2013-01-19 00:30:00,
2013-01-18 20:00:00,32.8,28.5,30.58,ESE,122,0.0,0.0,84,0.00,,CLR,-99.99,VWS V12.06,2013-01-19 01:00:00,
2013-01-18 20:30:00,32.8,27.0,30.57,ESE,123,1.0,1.0,79,0.00,,CLR,-99.99,VWS V12.06,2013-01-19 01:30:00,
2013-01-18 21:00:00,32.6,26.2,30.57,ESE,123,0.0,0.0,77,0.00,,CLR,-99.99,VWS V12.06,2013-01-19 02:00:00,
2013-01-18 21:30:00,33.1,25.1,30.57,ESE,123,1.0,2.0,72,0.00,,CLR,-99.99,VWS V12.06,2013-01-19 02:30:00,
2013-01-18 22:00:00,32.1,25.4,30.56,ESE,123,3.0,3.0,76,0.00,,CLR,-99.99,VWS V12.06,2013-01-19 03:00:00,
2013-01-18 22:30:00,31.5,24.8,30.56,South,178,2.0,4.0,76,0.00,,CLR,-99.99,VWS V12.06,2013-01-19 03:30:00,
2013-01-18 23:00:00,30.5,23.5,30.56,SSW,209,3.0,3.0,75,0.00,,CLR,-99.99,VWS V12.06,2013-01-19 04:00:00,
2013-01-18 23:30:00,30.2,24.2,30.55,SW,221,3.0,4.0,78,0.00,,CLR,-99.99,VWS V12.06,2013-01-19 04:30:00,